Latest Weather Observations for PORTABLE RFSNSW54

IDN60801

Issued at 9:32 am EDT Tuesday 26 March 2019 (issued every 10 minutes, with the page automatically refreshed every 10 minutes)

About weather observations | Map of weather stations | Latest weather observations for NSW | Other Formats
Station Details ID: 250097 Name: PORTABLE RFSNSW54 Lat: -29.10 Lon: 153.42 Height: 4.0 m
Data from the previous 72 hours. | See also: Recent months for locations in New South Wales
Date/Time
EDT
Temp
°C
App
Temp
°C
Dew
Point
°C
Rel
Hum
%
Delta-T
°C
Wind Press
QNH
hPa
Press
MSL
hPa
Rain since
9am
mm
Dir  Spd
km/h
Gust
km/h
Spd
kts
Gust
kts
26/09:00am 25.6 - 22.0 80 2.4 - - - - - - - 0.0
26/08:50am 25.2 - 22.0 82 2.1 - - - - - - - 0.0
26/08:40am 24.8 - 22.0 84 1.9 - - - - - - - 0.0
26/08:30am 24.5 - 21.9 85 1.7 - - - - - - - 0.0
26/08:20am 24.2 - 21.7 86 1.7 - - - - - - - 0.0
26/08:10am 24.0 - 21.5 86 1.7 - - - - - - - 0.0
26/08:00am 23.8 - 21.3 86 1.6 - - - - - - - 0.0
26/07:50am 23.7 - 21.2 86 1.6 - - - - - - - 0.0
26/07:40am 23.6 - 21.1 86 1.6 - - - - - - - 0.0
26/07:30am 23.4 - 21.1 87 1.5 - - - - - - - 0.0
26/07:20am 23.3 - 21.1 87 1.4 - - - - - - - 0.0
26/07:10am 23.2 - 21.0 87 1.4 - - - - - - - 0.0
26/07:00am 23.1 - 21.0 88 1.4 - - - - - - - 0.0
26/06:50am 23.1 - 20.9 87 1.4 - - - - - - - 0.0
26/06:40am 23.2 - 20.9 87 1.5 - - - - - - - 0.0
26/06:30am 23.3 - 21.1 87 1.4 - - - - - - - 0.0
26/06:20am 23.2 - 21.1 88 1.4 - - - - - - - 0.0
26/06:10am 23.2 - 21.1 88 1.4 - - - - - - - 0.0
26/06:00am 23.3 - 21.1 87 1.4 - - - - - - - 0.0
26/05:50am 23.3 - 21.0 87 1.5 - - - - - - - 0.0
26/05:40am 23.3 - 21.0 87 1.5 - - - - - - - 0.0
26/05:30am 23.3 - 21.0 87 1.5 - - - - - - - 0.0
26/05:20am 23.3 - 20.9 86 1.6 - - - - - - - 0.0
26/05:10am 23.3 - 20.9 86 1.6 - - - - - - - 0.0
26/05:00am 23.3 - 20.9 86 1.6 - - - - - - - 0.0
26/04:50am 23.4 - 20.9 86 1.6 - - - - - - - 0.0
26/04:40am 23.5 - 20.9 85 1.7 - - - - - - - 0.0
26/04:30am 23.6 - 21.0 85 1.7 - - - - - - - 0.0
26/04:20am 23.7 - 21.0 85 1.8 - - - - - - - 0.0
26/04:10am 23.6 - 21.1 86 1.6 - - - - - - - 0.0
26/04:00am 23.6 - 21.1 86 1.6 - - - - - - - 0.0
26/03:50am 23.7 - 21.1 85 1.7 - - - - - - - 0.0
26/03:40am 23.7 - 21.1 85 1.7 - - - - - - - 0.0
26/03:30am 23.8 - 21.0 84 1.8 - - - - - - - 0.0
26/03:20am 23.8 - 21.1 85 1.8 - - - - - - - 0.0
26/03:10am 24.0 - 21.1 84 1.9 - - - - - - - 0.0
26/03:00am 24.1 - 21.1 83 2.0 - - - - - - - 0.0
26/02:50am 24.2 - 21.1 83 2.0 - - - - - - - 0.0
26/02:40am 24.3 - 21.1 82 2.1 - - - - - - - 0.0
26/02:30am 24.4 - 21.1 82 2.2 - - - - - - - 0.0
26/02:20am 24.5 - 21.1 81 2.2 - - - - - - - 0.0
26/02:10am 24.6 - 21.1 81 2.3 - - - - - - - 0.0
26/02:00am 24.8 - 21.1 80 2.4 - - - - - - - 0.0
26/01:50am 24.9 - 21.1 79 2.5 - - - - - - - 0.0
26/01:40am 25.0 - 21.0 78 2.6 - - - - - - - 0.0
26/01:30am 25.0 - 20.9 78 2.7 - - - - - - - 0.0
26/01:20am 25.0 - 20.9 78 2.7 - - - - - - - 0.0
26/01:10am 25.1 - 20.8 77 2.8 - - - - - - - 0.0
26/01:00am 25.1 - 20.6 76 2.9 - - - - - - - 0.0
26/12:50am 25.1 - 20.6 76 2.9 - - - - - - - 0.0
26/12:40am 25.3 - 20.5 75 3.1 - - - - - - - 0.0
26/12:30am 25.3 - 20.6 75 3.1 - - - - - - - 0.0
26/12:20am 25.3 - 20.7 75 3.0 - - - - - - - 0.0
26/12:00am 25.2 - 20.9 77 2.8 - - - - - - - 0.0
 
Date/Time
EDT
Temp
°C
App
Temp
°C
Dew
Point
°C
Rel
Hum
%
Delta-T
°C
Wind Press
QNH
hPa
Press
MSL
hPa
Rain since
9am
mm
Dir  Spd
km/h
Gust
km/h
Spd
kts
Gust
kts
25/11:50pm 25.2 - 21.1 78 2.7 - - - - - - - 0.0
25/11:40pm 25.0 - 21.2 79 2.5 - - - - - - - 0.0
25/11:30pm 25.0 - 21.4 80 2.4 - - - - - - - 0.0
25/11:20pm 25.0 - 21.4 80 2.4 - - - - - - - 0.0
25/11:10pm 25.1 - 21.4 80 2.4 - - - - - - - 0.0
25/11:00pm 25.1 - 21.4 80 2.4 - - - - - - - 0.0
25/10:50pm 25.1 - 21.4 80 2.4 - - - - - - - 0.0
25/10:40pm 25.3 - 21.3 78 2.6 - - - - - - - 0.0
25/10:30pm 25.4 - 21.3 78 2.7 - - - - - - - 0.0
25/10:20pm 25.5 - 21.3 77 2.8 - - - - - - - 0.0
25/10:10pm 25.6 - 21.3 77 2.8 - - - - - - - 0.0
25/10:00pm 25.7 - 21.2 76 3.0 - - - - - - - 0.0
25/09:50pm 25.7 - 21.2 76 3.0 - - - - - - - 0.0
25/09:40pm 25.7 - 21.3 76 2.9 - - - - - - - 0.0
25/09:30pm 25.8 - 21.2 76 3.0 - - - - - - - 0.0
25/09:20pm 25.8 - 21.3 76 3.0 - - - - - - - 0.0
25/09:10pm 25.9 - 21.3 76 3.0 - - - - - - - 0.0
25/09:00pm 26.0 - 21.4 76 3.1 - - - - - - - 0.0
25/08:50pm 26.1 - 21.5 76 3.1 - - - - - - - 0.0
25/08:40pm 26.2 - 21.6 76 3.1 - - - - - - - 0.0
25/08:30pm 26.2 - 21.6 76 3.1 - - - - - - - 0.0
25/08:20pm 26.3 - 21.7 76 3.1 - - - - - - - 0.0
25/08:10pm 26.3 - 21.7 76 3.1 - - - - - - - 0.0
25/08:00pm 26.4 - 21.8 76 3.1 - - - - - - - 0.0
25/07:50pm 26.5 - 21.9 76 3.1 - - - - - - - 0.0
25/07:40pm 26.6 - 22.0 76 3.1 - - - - - - - 0.0
25/07:30pm 26.7 - 22.1 76 3.1 - - - - - - - 0.0
25/07:20pm 26.7 - 22.4 77 2.9 - - - - - - - 0.0
25/07:10pm 26.8 - 22.5 77 2.9 - - - - - - - 0.0
25/07:00pm 27.0 - 22.7 77 2.9 - - - - - - - 0.0
25/06:50pm 27.4 - 22.5 74 3.3 - - - - - - - 0.0
25/06:40pm 27.6 - 22.4 73 3.5 - - - - - - - 0.0
25/06:30pm 27.9 - 22.5 72 3.7 - - - - - - - 0.0
25/06:20pm 28.2 - 22.5 71 3.9 - - - - - - - 0.0
25/06:10pm 28.4 - 22.5 70 4.0 - - - - - - - 0.0
25/06:00pm 28.4 - 22.3 69 4.1 - - - - - - - 0.0
25/05:50pm 28.8 - 22.8 70 4.1 - - - - - - - 0.0
25/05:40pm 29.1 - 22.4 67 4.5 - - - - - - - 0.0
25/05:30pm 29.2 - 21.9 64 4.9 - - - - - - - 0.0
25/05:20pm 29.6 - 22.4 65 4.9 - - - - - - - 0.0
25/05:10pm 29.5 - 21.9 63 5.1 - - - - - - - 0.0
25/05:00pm 29.4 - 22.1 65 4.9 - - - - - - - 0.0
25/04:50pm 29.3 - 22.3 66 4.7 - - - - - - - 0.0
25/04:40pm 29.3 - 22.7 67 4.5 - - - - - - - 0.0
25/04:30pm 29.2 - 22.9 69 4.3 - - - - - - - 0.0
25/04:20pm 29.1 - 23.1 70 4.1 - - - - - - - 0.0
25/04:10pm 29.2 - 23.2 70 4.1 - - - - - - - 0.0
25/04:00pm 29.3 - 23.3 70 4.1 - - - - - - - 0.0
25/03:50pm 29.5 - 23.0 68 4.4 - - - - - - - 0.0
25/03:40pm 29.8 - 23.0 67 4.7 - - - - - - - 0.0
25/03:30pm 29.9 - 23.0 66 4.7 - - - - - - - 0.0
25/03:20pm 29.5 - 23.1 68 4.4 - - - - - - - 0.0
25/03:10pm 30.2 - 23.6 67 4.6 - - - - - - - 0.0
25/03:00pm 30.1 - 23.2 66 4.7 - - - - - - - 0.0
25/02:50pm 29.9 - 23.1 67 4.7 - - - - - - - 0.0
25/02:40pm 30.3 - 23.1 65 4.9 - - - - - - - 0.0
25/02:30pm 29.7 - 23.2 68 4.5 - - - - - - - 0.0
25/02:20pm 30.2 - 22.9 65 5.0 - - - - - - - 0.0
25/02:10pm 30.1 - 22.2 62 5.4 - - - - - - - 0.0
25/02:00pm 30.9 - 21.8 58 6.1 - - - - - - - 0.0
25/01:50pm 31.0 - 22.5 60 5.8 - - - - - - - 0.0
25/01:40pm 30.5 - 22.4 62 5.5 - - - - - - - 0.0
25/01:30pm 31.4 - 22.9 60 5.8 - - - - - - - 0.0
25/01:20pm 33.0 - 21.8 51 7.6 - - - - - - - 0.0
25/01:10pm 35.0 - 22.2 47 8.8 - - - - - - - 0.0
25/01:00pm 34.4 - 18.2 38 10.5 - - - - - - - 0.0
25/12:50pm 33.9 - 17.3 37 10.6 - - - - - - - 0.0
25/12:40pm 34.1 - 17.1 36 10.9 - - - - - - - 0.0
25/12:30pm 34.1 - 17.3 36 10.8 - - - - - - - 0.0
25/12:20pm 33.4 - 18.1 40 9.9 - - - - - - - 0.0
25/12:10pm 33.1 - 18.0 40 9.7 - - - - - - - 0.0
25/12:00pm 33.5 - 18.4 40 9.8 - - - - - - - 0.0
25/11:50am 32.8 - 18.8 43 9.1 - - - - - - - 0.0
25/11:40am 33.2 - 18.1 40 9.8 - - - - - - - 0.0
25/11:30am 32.8 - 18.4 42 9.3 - - - - - - - 0.0
25/11:20am 32.8 - 18.8 43 9.1 - - - - - - - 0.0
25/11:10am 32.7 - 18.6 43 9.2 - - - - - - - 0.0
25/11:00am 32.6 - 19.2 45 8.8 - - - - - - - 0.0
25/10:50am 32.2 - 18.5 44 8.9 - - - - - - - 0.0
25/10:40am 31.7 - 19.1 47 8.2 - - - - - - - 0.0
25/10:30am 31.6 - 18.9 47 8.3 - - - - - - - 0.0
25/10:20am 31.2 - 18.8 47 8.0 - - - - - - - 0.0
25/10:10am 30.7 - 19.1 50 7.5 - - - - - - - 0.0
25/10:00am 29.9 - 20.5 57 6.2 - - - - - - - 0.0
25/09:50am 29.4 - 20.7 59 5.8 - - - - - - - 0.0
25/09:40am 28.8 - 20.5 61 5.5 - - - - - - - 0.0
25/09:30am 28.0 - 21.2 66 4.5 - - - - - - - 0.0
25/09:20am 27.9 - 21.1 66 4.5 - - - - - - - 0.0
25/09:10am 27.5 - 21.2 68 4.2 - - - - - - - 0.0
25/09:00am 27.3 - 21.0 68 4.2 - - - - - - - 0.0
25/08:50am 26.7 - 20.8 70 3.9 - - - - - - - 0.0
25/08:40am 25.9 - 21.0 74 3.2 - - - - - - - 0.0
25/08:30am 25.2 - 20.9 77 2.8 - - - - - - - 0.0
25/08:20am 24.7 - 21.3 81 2.2 - - - - - - - 0.0
25/08:10am 24.1 - 21.1 83 2.0 - - - - - - - 0.0
25/08:00am 23.6 - 20.9 85 1.8 - - - - - - - 0.0
25/07:50am 23.0 - 20.9 88 1.4 - - - - - - - 0.0
25/07:40am 22.3 - 20.5 89 1.2 - - - - - - - 0.0
25/07:30am 21.5 - 19.8 90 1.1 - - - - - - - 0.0
25/07:20am 21.0 - 19.4 90 1.0 - - - - - - - 0.0
25/07:10am 20.9 - 19.3 90 1.0 - - - - - - - 0.0
25/07:00am 20.9 - 19.2 90 1.1 - - - - - - - 0.0
25/06:50am 21.1 - 19.3 89 1.1 - - - - - - - 0.0
25/06:40am 21.1 - 19.5 90 1.0 - - - - - - - 0.0
25/06:30am 21.1 - 19.4 90 1.1 - - - - - - - 0.0
25/06:20am 21.1 - 19.3 89 1.1 - - - - - - - 0.0
25/06:10am 21.3 - 19.4 89 1.2 - - - - - - - 0.0
25/06:00am 21.2 - 19.4 89 1.1 - - - - - - - 0.0
25/05:50am 21.2 - 19.4 89 1.1 - - - - - - - 0.0
25/05:40am 21.2 - 19.4 89 1.1 - - - - - - - 0.0
25/05:30am 21.4 - 19.5 89 1.2 - - - - - - - 0.0
25/05:20am 21.5 - 19.6 89 1.2 - - - - - - - 0.0
25/05:10am 21.7 - 19.7 88 1.3 - - - - - - - 0.0
25/05:00am 21.6 - 19.8 89 1.2 - - - - - - - 0.0
25/04:50am 21.4 - 19.8 91 1.0 - - - - - - - 0.0
25/04:40am 21.2 - 19.8 92 0.9 - - - - - - - 0.0
25/04:30am 21.2 - 19.9 92 0.8 - - - - - - - 0.0
25/04:20am 21.1 - 19.8 92 0.8 - - - - - - - 0.0
25/04:10am 21.1 - 19.8 92 0.8 - - - - - - - 0.0
25/04:00am 21.1 - 19.8 92 0.8 - - - - - - - 0.0
25/03:50am 21.3 - 20.0 92 0.8 - - - - - - - 0.0
25/03:40am 21.5 - 20.1 92 0.9 - - - - - - - 0.0
25/03:30am 21.5 - 20.2 92 0.8 - - - - - - - 0.0
25/03:20am 21.4 - 19.9 91 1.0 - - - - - - - 0.0
25/03:10am 21.7 - 20.4 92 0.8 - - - - - - - 0.0
25/03:00am 21.6 - 20.2 92 0.9 - - - - - - - 0.0
25/02:50am 21.9 - 20.4 91 1.0 - - - - - - - 0.0
25/02:40am 22.0 - 20.5 91 1.0 - - - - - - - 0.0
25/02:30am 22.2 - 20.6 91 1.0 - - - - - - - 0.0
25/02:20am 22.4 - 20.9 91 1.0 - - - - - - - 0.0
25/02:10am 22.6 - 21.0 91 1.0 - - - - - - - 0.0
25/02:00am 22.4 - 20.9 91 1.0 - - - - - - - 0.0
25/01:50am 22.4 - 21.0 92 0.9 - - - - - - - 0.0
25/01:40am 22.2 - 20.7 91 1.0 - - - - - - - 0.0
25/01:30am 22.1 - 20.6 91 1.0 - - - - - - - 0.0
25/01:20am 22.4 - 20.7 90 1.1 - - - - - - - 0.0
25/01:10am 22.8 - 21.4 92 0.9 - - - - - - - 0.0
25/01:00am 22.6 - 21.2 92 0.9 - - - - - - - 0.0
25/12:50am 22.7 - 21.1 91 1.0 - - - - - - - 0.0
25/12:40am 22.7 - 20.8 89 1.2 - - - - - - - 0.0
25/12:30am 22.9 - 20.9 88 1.3 - - - - - - - 0.0
25/12:20am 23.2 - 21.0 87 1.4 - - - - - - - 0.0
25/12:10am 23.4 - 21.2 87 1.4 - - - - - - - 0.0
25/12:00am 23.7 - 21.5 87 1.5 - - - - - - - 0.0
 
Date/Time
EDT
Temp
°C
App
Temp
°C
Dew
Point
°C
Rel
Hum
%
Delta-T
°C
Wind Press
QNH
hPa
Press
MSL
hPa
Rain since
9am
mm
Dir  Spd
km/h
Gust
km/h
Spd
kts
Gust
kts
24/11:50pm 23.9 - 21.6 87 1.5 - - - - - - - 0.0
24/11:40pm 24.1 - 21.6 86 1.7 - - - - - - - 0.0
24/11:30pm 24.3 - 21.7 85 1.7 - - - - - - - 0.0
24/11:20pm 24.6 - 21.7 84 1.9 - - - - - - - 0.0
24/11:10pm 24.9 - 21.8 83 2.1 - - - - - - - 0.0
24/11:00pm 25.2 - 21.9 82 2.2 - - - - - - - 0.0
24/10:50pm 25.4 - 21.9 81 2.3 - - - - - - - 0.0
24/10:40pm 25.5 - 21.9 80 2.4 - - - - - - - 0.0
24/10:30pm 25.5 - 22.0 81 2.3 - - - - - - - 0.0
24/10:20pm 25.4 - 22.0 81 2.3 - - - - - - - 0.0
24/10:10pm 25.5 - 22.0 81 2.3 - - - - - - - 0.0
24/10:00pm 25.6 - 22.1 81 2.3 - - - - - - - 0.0
24/09:50pm 25.7 - 22.2 81 2.3 - - - - - - - 0.0
24/09:40pm 25.9 - 22.3 80 2.4 - - - - - - - 0.0
24/09:30pm 26.1 - 22.3 79 2.6 - - - - - - - 0.0
24/09:20pm 26.3 - 22.4 79 2.6 - - - - - - - 0.0
24/09:10pm 26.4 - 22.5 79 2.6 - - - - - - - 0.0
24/09:00pm 26.7 - 22.6 78 2.8 - - - - - - - 0.0
24/08:50pm 26.9 - 22.7 78 2.8 - - - - - - - 0.0
24/08:40pm 27.0 - 22.8 78 2.8 - - - - - - - 0.0
24/08:30pm 27.3 - 22.8 76 3.1 - - - - - - - 0.0
24/08:20pm 27.4 - 22.8 76 3.1 - - - - - - - 0.0
24/08:10pm 27.5 - 22.9 76 3.1 - - - - - - - 0.0
24/08:00pm 27.7 - 22.9 75 3.3 - - - - - - - 0.0
24/07:50pm 27.8 - 23.0 75 3.3 - - - - - - - 0.0
24/07:40pm 28.0 - 22.8 73 3.5 - - - - - - - 0.0
24/07:30pm 28.2 - 22.6 71 3.8 - - - - - - - 0.0
24/07:20pm 28.2 - 22.4 71 3.9 - - - - - - - 0.0
24/07:10pm 28.3 - 22.3 70 4.1 - - - - - - - 0.0
24/07:00pm 28.3 - 22.3 70 4.1 - - - - - - - 0.0
24/06:50pm 28.6 - 22.6 70 4.1 - - - - - - - 0.0
24/06:40pm 29.4 - 22.2 65 4.9 - - - - - - - 0.0
24/06:30pm 29.4 - 22.1 65 4.9 - - - - - - - 0.0
24/06:20pm 29.9 - 22.6 65 5.0 - - - - - - - 0.0
24/06:10pm 30.5 - 22.2 61 5.6 - - - - - - - 0.0
24/06:00pm 30.5 - 22.4 62 5.5 - - - - - - - 0.0
24/05:50pm 30.5 - 22.6 62 5.4 - - - - - - - 0.0
24/05:40pm 30.6 - 22.7 62 5.4 - - - - - - - 0.0
24/05:30pm 30.7 - 22.8 62 5.4 - - - - - - - 0.0
24/05:20pm 30.9 - 22.6 61 5.7 - - - - - - - 0.0
24/05:10pm 30.9 - 22.4 60 5.8 - - - - - - - 0.0
24/05:00pm 30.4 - 22.8 64 5.2 - - - - - - - 0.0
24/04:50pm 30.5 - 22.9 64 5.2 - - - - - - - 0.0
24/04:40pm 30.6 - 23.1 64 5.2 - - - - - - - 0.0
24/04:30pm 30.6 - 23.1 64 5.2 - - - - - - - 0.0
24/04:20pm 30.7 - 23.4 65 5.0 - - - - - - - 0.0
24/04:10pm 31.0 - 23.3 63 5.3 - - - - - - - 0.0
24/04:00pm 30.8 - 23.5 65 5.0 - - - - - - - 0.0
24/03:50pm 30.6 - 23.4 65 5.0 - - - - - - - 0.0
24/03:40pm 30.6 - 23.8 67 4.7 - - - - - - - 0.0
24/03:30pm 30.1 - 23.6 68 4.5 - - - - - - - 0.0
24/03:20pm 29.8 - 23.2 67 4.5 - - - - - - - 0.0
24/03:10pm 29.9 - 22.7 65 4.9 - - - - - - - 0.0
24/03:00pm 30.0 - 23.1 66 4.7 - - - - - - - 0.0
24/02:50pm 29.7 - 23.1 67 4.5 - - - - - - - 0.0
24/02:40pm 30.3 - 22.4 62 5.4 - - - - - - - 0.0
24/02:30pm 30.7 - 23.2 64 5.2 - - - - - - - 0.0
24/02:20pm 31.8 - 22.6 58 6.3 - - - - - - - 0.0
24/02:10pm 32.8 - 23.0 56 6.8 - - - - - - - 0.0
24/02:00pm 33.8 - 20.9 46 8.7 - - - - - - - 0.0
24/01:50pm 34.5 - 21.7 47 8.7 - - - - - - - 0.0
24/01:40pm 34.3 - 18.0 38 10.6 - - - - - - - 0.0
24/01:30pm 34.0 - 18.7 40 10.0 - - - - - - - 0.0
24/01:20pm 33.6 - 18.2 40 10.0 - - - - - - - 0.0
24/01:10pm 33.5 - 19.5 43 9.2 - - - - - - - 0.0
24/01:00pm 33.3 - 18.8 42 9.5 - - - - - - - 0.0
24/12:50pm 33.3 - 19.6 44 9.0 - - - - - - - 0.0
24/12:40pm 32.4 - 19.8 47 8.3 - - - - - - - 0.0
24/12:30pm 32.3 - 19.5 46 8.4 - - - - - - - 0.0
24/12:20pm 31.8 - 18.4 45 8.7 - - - - - - - 0.0
24/12:10pm 31.3 - 18.7 47 8.2 - - - - - - - 0.0
24/12:00pm 31.0 - 19.1 49 7.8 - - - - - - - 0.0
24/11:50am 31.0 - 18.3 46 8.2 - - - - - - - 0.0
24/11:40am 30.5 - 18.0 47 8.0 - - - - - - - 0.0
24/11:30am 30.2 - 18.1 48 7.8 - - - - - - - 0.0
24/11:20am 29.8 - 18.7 51 7.2 - - - - - - - 0.0
24/11:10am 29.6 - 19.4 54 6.6 - - - - - - - 0.0
24/11:00am 29.1 - 19.0 54 6.5 - - - - - - - 0.0
24/10:50am 28.9 - 18.8 54 6.5 - - - - - - - 0.0
24/10:40am 28.9 - 18.3 52 6.8 - - - - - - - 0.0
24/10:30am 29.1 - 19.3 55 6.4 - - - - - - - 0.0
24/10:20am 28.9 - 18.4 53 6.7 - - - - - - - 0.0
24/10:10am 28.7 - 18.8 55 6.4 - - - - - - - 0.0
24/10:00am 28.1 - 19.4 59 5.6 - - - - - - - 0.4
24/09:50am 27.4 - 19.4 61 5.2 - - - - - - - 0.4
24/09:40am 27.1 - 19.4 62 5.0 - - - - - - - 0.4
24/09:30am 27.0 - 19.6 64 4.8 - - - - - - - 0.4
24/09:20am 27.0 - 20.1 66 4.5 - - - - - - - 0.4
24/09:10am 26.8 - 20.5 68 4.1 - - - - - - - 0.4
24/09:00am 26.2 - 20.2 69 3.9 - - - - - - - 0.4
24/08:50am 25.6 - 20.1 71 3.6 - - - - - - - 0.4
24/08:40am 25.0 - 20.0 74 3.2 - - - - - - - 0.4
24/08:30am 24.4 - 19.8 75 3.0 - - - - - - - 0.4
24/08:20am 23.8 - 19.6 77 2.7 - - - - - - - 0.4
24/08:00am 22.6 - 19.4 82 2.0 - - - - - - - 0.4
24/07:50am 22.1 - 19.1 83 1.9 - - - - - - - 0.4
24/07:40am 21.7 - 18.6 82 1.9 - - - - - - - 0.4
24/07:30am 21.2 - 18.5 84 1.7 - - - - - - - 0.4
24/07:20am 21.1 - 18.3 84 1.7 - - - - - - - 0.4
24/07:10am 21.5 - 18.4 82 1.9 - - - - - - - 0.4
24/07:00am 21.6 - 18.3 81 2.1 - - - - - - - 0.4
24/06:50am 21.7 - 18.3 81 2.1 - - - - - - - 0.4
24/06:40am 21.8 - 18.4 81 2.1 - - - - - - - 0.4
24/06:30am 21.8 - 18.7 82 1.9 - - - - - - - 0.4
24/06:20am 21.3 - 18.5 84 1.8 - - - - - - - 0.4
24/06:10am 20.7 - 18.3 86 1.5 - - - - - - - 0.4
24/06:00am 20.4 - 18.4 88 1.2 - - - - - - - 0.4
24/05:50am 20.3 - 18.4 89 1.2 - - - - - - - 0.4
24/05:40am 20.3 - 18.3 88 1.2 - - - - - - - 0.4
24/05:30am 20.1 - 18.2 89 1.2 - - - - - - - 0.4
24/05:20am 19.9 - 17.9 88 1.2 - - - - - - - 0.4
24/05:10am 19.9 - 17.9 88 1.2 - - - - - - - 0.4
24/05:00am 19.7 - 17.8 89 1.2 - - - - - - - 0.4
24/04:50am 19.7 - 17.8 89 1.2 - - - - - - - 0.4
24/04:40am 19.5 - 17.8 90 1.0 - - - - - - - 0.4
24/04:30am 19.0 - 17.4 90 1.0 - - - - - - - 0.4
24/04:20am 18.9 - 17.3 90 1.0 - - - - - - - 0.4
24/04:10am 18.8 - 17.2 90 1.0 - - - - - - - 0.4
24/04:00am 18.9 - 17.2 90 1.0 - - - - - - - 0.4
24/03:50am 18.9 - 17.2 90 1.0 - - - - - - - 0.0
24/03:40am 18.8 - 17.1 90 1.0 - - - - - - - 0.0
24/03:30am 18.9 - 17.0 89 1.1 - - - - - - - 0.0
24/03:20am 19.0 - 17.1 89 1.2 - - - - - - - 0.0
24/03:10am 19.2 - 17.2 88 1.2 - - - - - - - 0.0
24/03:00am 19.3 - 17.3 88 1.2 - - - - - - - 0.0
24/02:50am 19.3 - 17.4 89 1.2 - - - - - - - 0.0
24/02:40am 19.5 - 17.4 88 1.3 - - - - - - - 0.0
24/02:30am 19.6 - 17.5 88 1.3 - - - - - - - 0.0
24/02:20am 19.6 - 17.6 88 1.2 - - - - - - - 0.0
24/02:10am 19.7 - 17.6 88 1.3 - - - - - - - 0.0
24/02:00am 19.6 - 17.6 88 1.2 - - - - - - - 0.0
24/01:50am 19.6 - 17.6 88 1.2 - - - - - - - 0.0
24/01:40am 19.6 - 17.7 89 1.2 - - - - - - - 0.0
24/01:30am 19.6 - 17.6 88 1.2 - - - - - - - 0.0
24/01:20am 19.8 - 17.6 87 1.3 - - - - - - - 0.0
24/01:10am 20.2 - 17.9 87 1.4 - - - - - - - 0.0
24/01:00am 20.6 - 18.2 86 1.5 - - - - - - - 0.0
24/12:50am 20.7 - 18.1 85 1.6 - - - - - - - 0.0
24/12:40am 20.9 - 18.2 84 1.7 - - - - - - - 0.0
24/12:30am 21.2 - 18.4 84 1.7 - - - - - - - 0.0
24/12:20am 21.3 - 18.5 84 1.8 - - - - - - - 0.0
24/12:10am 21.4 - 18.6 84 1.8 - - - - - - - 0.0
24/12:00am 21.6 - 18.4 82 2.0 - - - - - - - 0.0
 
Date/Time
EDT
Temp
°C
App
Temp
°C
Dew
Point
°C
Rel
Hum
%
Delta-T
°C
Wind Press
QNH
hPa
Press
MSL
hPa
Rain since
9am
mm
Dir  Spd
km/h
Gust
km/h
Spd
kts
Gust
kts
23/11:50pm 21.6 - 18.5 82 1.9 - - - - - - - 0.0
23/11:40pm 21.5 - 18.2 81 2.1 - - - - - - - 0.0
23/11:30pm 21.5 - 18.3 82 2.0 - - - - - - - 0.0
23/11:20pm 21.7 - 18.3 81 2.1 - - - - - - - 0.0
23/11:10pm 22.0 - 18.4 80 2.3 - - - - - - - 0.0
23/11:00pm 22.0 - 18.4 80 2.3 - - - - - - - 0.0
23/10:50pm 22.2 - 18.7 80 2.2 - - - - - - - 0.0
23/10:40pm 22.9 - 18.8 77 2.6 - - - - - - - 0.0
23/10:30pm 23.3 - 19.2 78 2.6 - - - - - - - 0.0
23/10:20pm 24.1 - 19.2 74 3.1 - - - - - - - 0.0
23/10:10pm 24.1 - 19.4 75 3.0 - - - - - - - 0.0
23/10:00pm 24.4 - 19.1 72 3.4 - - - - - - - 0.0
23/09:50pm 24.4 - 18.9 71 3.5 - - - - - - - 0.0
23/09:40pm 24.6 - 17.6 65 4.4 - - - - - - - 0.0
23/09:30pm 24.7 - 17.7 65 4.4 - - - - - - - 0.0
23/09:20pm 24.8 - 17.2 62 4.7 - - - - - - - 0.0
23/09:00pm 25.3 - 17.5 62 4.9 - - - - - - - 0.0
23/08:50pm 25.4 - 17.3 61 5.0 - - - - - - - 0.0
23/08:40pm 25.5 - 17.5 61 5.0 - - - - - - - 0.0
23/08:30pm 25.5 - 17.7 62 4.9 - - - - - - - 0.0
23/08:20pm 25.4 - 18.4 65 4.4 - - - - - - - 0.0
23/08:10pm 25.5 - 18.7 66 4.3 - - - - - - - 0.0
23/08:00pm 25.5 - 19.4 69 3.9 - - - - - - - 0.0
23/07:50pm 25.8 - 20.1 71 3.7 - - - - - - - 0.0
23/07:40pm 26.2 - 20.3 70 3.9 - - - - - - - 0.0
23/07:30pm 26.6 - 20.4 69 4.1 - - - - - - - 0.0
23/07:20pm 27.0 - 20.1 66 4.5 - - - - - - - 0.0
23/07:10pm 27.1 - 20.4 66 4.4 - - - - - - - 0.0
23/07:00pm 27.3 - 20.4 66 4.5 - - - - - - - 0.0
23/06:50pm 27.6 - 22.8 75 3.3 - - - - - - - 0.0
23/06:40pm 27.9 - 22.9 74 3.4 - - - - - - - 0.0
23/06:30pm 28.1 - 22.7 72 3.7 - - - - - - - 0.0
23/06:20pm 28.1 - 22.5 71 3.8 - - - - - - - 0.0
23/06:10pm 27.5 - 22.2 73 3.6 - - - - - - - 0.0
23/06:00pm 27.2 - 23.7 81 2.4 - - - - - - - 0.0
23/05:50pm 27.2 - 23.7 81 2.4 - - - - - - - 0.0
23/05:40pm 27.2 - 23.7 81 2.4 - - - - - - - 0.0
23/05:30pm 27.2 - 23.6 81 2.5 - - - - - - - 0.0
23/05:20pm 27.3 - 23.4 79 2.7 - - - - - - - 0.0
23/05:10pm 27.3 - 22.8 76 3.1 - - - - - - - 0.0
23/05:00pm 27.4 - 22.6 75 3.2 - - - - - - - 0.0
23/04:50pm 27.3 - 22.8 76 3.1 - - - - - - - 0.0
23/04:40pm 27.4 - 22.9 76 3.1 - - - - - - - 0.0
23/04:30pm 27.5 - 23.1 77 3.0 - - - - - - - 0.0
23/04:20pm 27.8 - 23.5 77 2.9 - - - - - - - 0.0
23/04:10pm 28.2 - 23.3 75 3.4 - - - - - - - 0.0
23/04:00pm 28.8 - 23.1 71 3.9 - - - - - - - 0.0
23/03:50pm 29.5 - 23.4 69 4.2 - - - - - - - 0.0
23/03:40pm 29.3 - 22.9 68 4.4 - - - - - - - 0.0
23/03:30pm 29.2 - 23.1 69 4.2 - - - - - - - 0.0
23/03:20pm 29.0 - 23.2 71 4.0 - - - - - - - 0.0
23/03:10pm 29.4 - 23.2 69 4.3 - - - - - - - 0.0
23/03:00pm 29.8 - 22.9 66 4.7 - - - - - - - 0.0
23/02:50pm 29.7 - 22.9 67 4.6 - - - - - - - 0.0
23/02:40pm 29.5 - 22.3 65 4.9 - - - - - - - 0.0
23/02:30pm 29.3 - 22.6 67 4.6 - - - - - - - 0.0
23/02:20pm 29.8 - 22.6 65 4.9 - - - - - - - 0.0
23/02:10pm 30.3 - 22.5 63 5.3 - - - - - - - 0.0
23/02:00pm 31.8 - 23.7 62 5.6 - - - - - - - 0.0
23/01:50pm 32.8 - 21.6 51 7.6 - - - - - - - 0.0
23/01:40pm 32.4 - 20.9 50 7.7 - - - - - - - 0.0
23/01:30pm 31.9 - 20.6 51 7.5 - - - - - - - 0.0
23/01:20pm 31.8 - 20.7 51 7.4 - - - - - - - 0.0
23/01:10pm 31.6 - 20.3 51 7.5 - - - - - - - 0.0
23/01:00pm 31.2 - 20.4 52 7.2 - - - - - - - 0.0
23/12:50pm 30.9 - 20.7 54 6.8 - - - - - - - 0.0
23/12:40pm 30.8 - 20.8 55 6.7 - - - - - - - 0.0
23/12:30pm 30.5 - 20.3 54 6.7 - - - - - - - 0.0
23/12:20pm 30.3 - 20.8 56 6.3 - - - - - - - 0.0
23/12:10pm 30.0 - 20.3 56 6.4 - - - - - - - 0.0
23/12:00pm 30.0 - 20.5 56 6.3 - - - - - - - 0.0
23/11:50am 29.6 - 20.0 56 6.3 - - - - - - - 0.0
23/11:40am 29.5 - 20.4 58 6.0 - - - - - - - 0.0
23/11:30am 29.0 - 21.0 62 5.3 - - - - - - - 0.0
23/11:20am 29.0 - 20.5 60 5.6 - - - - - - - 0.0
23/11:10am 28.5 - 20.2 60 5.5 - - - - - - - 0.0
23/11:00am 28.4 - 20.4 62 5.3 - - - - - - - 0.0
23/10:50am 27.8 - 20.5 64 4.8 - - - - - - - 0.0
23/10:40am 27.6 - 20.4 65 4.7 - - - - - - - 0.0
23/10:30am 27.0 - 20.6 68 4.2 - - - - - - - 0.0
23/10:20am 27.0 - 20.3 66 4.4 - - - - - - - 0.0
23/10:10am 26.4 - 20.4 69 3.9 - - - - - - - 0.0
23/10:00am 26.1 - 20.2 70 3.8 - - - - - - - 0.4
23/09:50am 25.8 - 20.1 71 3.7 - - - - - - - 0.4
23/09:40am 25.3 - 20.3 74 3.3 - - - - - - - 0.4

Other formats

Comma delimited format used in spreadsheet applications
http://www.bom.gov.au/fwo/IDN60801/IDN60801.99793.axf

JavaScript Object Notation format (JSON) in row-major order
http://www.bom.gov.au/fwo/IDN60801/IDN60801.99793.json

Data quality

Most of these data are generated automatically and are frequently updated. Quality checks on data are not normally performed. It is possible for incorrect values to appear. Refer to information at About Latest Weather Observations and please check the disclaimer before using these data.